Time;durP1;ratioP1;P1;durP2;ratioP2;P2;SDS_P1;SDS_P2;PMS_P1;PMS_P2;Temp;Humidity;BMP_temperature;BMP_pressure;BME280_temperature;BME280_humidity;BME280_pressure;Samples;Min_cycle;Max_cycle;Signal;HPM_P1;HPM_P2
2022/05/07 00:02:25;;;;;;;12.18;6.18;;;;;;;;;;5023768;28;21026;-46
2022/05/07 00:04:51;;;;;;;11.15;5.38;;;;;;;;;;5023219;28;20087;-50
2022/05/07 00:07:20;;;;;;;9.25;5.82;;;;;;;;;;5023382;28;20313;-50
2022/05/07 00:09:46;;;;;;;8.27;3.58;;;;;;;;;;5023118;28;20130;-47
2022/05/07 00:12:14;;;;;;;6.70;3.65;;;;;;;;;;5050755;28;20025;-46
2022/05/07 00:14:40;;;;;;;7.65;4.30;;;;;;;;;;5035059;28;20412;-46
2022/05/07 00:19:52;;;;;;;5.82;3.55;;;;;;;;;;5053668;28;20125;-47
2022/05/07 00:22:18;;;;;;;7.18;5.03;;;;;;;;;;5053317;28;20369;-46
2022/05/07 00:24:44;;;;;;;14.48;7.90;;;;;;;;;;5068159;28;20033;-46
2022/05/07 00:27:13;;;;;;;8.02;5.45;;;;;;;;;;5053002;28;20036;-46
2022/05/07 00:29:39;;;;;;;22.73;13.73;;;;;;;;;;5053089;28;20025;-46
2022/05/07 00:32:06;;;;;;;11.32;7.80;;;;;;;;;;5055333;28;20396;-46
2022/05/07 00:34:32;;;;;;;20.58;11.63;;;;;;;;;;5057101;28;20017;-47
2022/05/07 00:36:59;;;;;;;12.63;7.97;;;;;;;;;;5057082;28;20468;-47
2022/05/07 00:39:25;;;;;;;15.32;6.53;;;;;;;;;;5056881;28;20032;-46
2022/05/07 00:41:52;;;;;;;25.13;14.57;;;;;;;;;;5056758;28;20040;-46
2022/05/07 00:44:20;;;;;;;15.82;8.70;;;;;;;;;;5056991;28;20063;-47
2022/05/07 00:46:46;;;;;;;9.27;5.88;;;;;;;;;;5056736;28;20067;-47
2022/05/07 00:49:13;;;;;;;14.45;8.65;;;;;;;;;;5056928;28;20103;-46
2022/05/07 00:51:39;;;;;;;7.88;5.20;;;;;;;;;;5056697;28;20059;-51
2022/05/07 00:54:08;;;;;;;14.20;8.40;;;;;;;;;;5056965;28;20025;-47
2022/05/07 00:56:36;;;;;;;10.63;6.22;;;;;;;;;;5056581;28;20472;-46
2022/05/07 00:59:03;;;;;;;10.60;6.47;;;;;;;;;;5056739;28;20040;-47
2022/05/07 01:01:29;;;;;;;13.20;8.07;;;;;;;;;;5056488;28;20025;-47
2022/05/07 01:03:56;;;;;;;11.38;5.93;;;;;;;;;;5070758;28;20029;-46
2022/05/07 01:06:22;;;;;;;11.38;5.85;;;;;;;;;;5076567;28;20390;-47
2022/05/07 01:08:52;;;;;;;10.18;5.15;;;;;;;;;;5076240;28;20438;-48
2022/05/07 01:11:19;;;;;;;10.50;5.47;;;;;;;;;;5076381;28;20035;-47
2022/05/07 01:13:48;;;;;;;7.15;4.45;;;;;;;;;;5076293;28;20027;-48
2022/05/07 01:16:14;;;;;;;11.70;6.32;;;;;;;;;;5058502;28;20108;-47
2022/05/07 01:18:41;;;;;;;9.48;6.18;;;;;;;;;;5056437;28;20051;-48
2022/05/07 01:21:14;;;;;;;8.07;5.28;;;;;;;;;;5056355;28;20045;-47
2022/05/07 01:23:41;;;;;;;8.00;5.50;;;;;;;;;;5056423;28;20060;-47
2022/05/07 01:26:12;;;;;;;5.32;4.22;;;;;;;;;;5070212;28;20024;-45
2022/05/07 01:28:41;;;;;;;11.52;5.47;;;;;;;;;;5076258;28;20032;-45
2022/05/07 01:31:08;;;;;;;13.70;9.00;;;;;;;;;;5075973;28;20131;-45
2022/05/07 01:33:34;;;;;;;20.77;11.77;;;;;;;;;;5075913;28;20108;-47
2022/05/07 01:36:02;;;;;;;9.38;5.70;;;;;;;;;;5076048;28;20024;-46
2022/05/07 01:38:28;;;;;;;9.30;4.63;;;;;;;;;;5075942;28;20024;-46
2022/05/07 01:41:03;;;;;;;7.43;5.15;;;;;;;;;;5075729;28;20116;-46
2022/05/07 01:43:34;;;;;;;11.68;7.55;;;;;;;;;;5075204;28;20165;-46
2022/05/07 01:46:00;;;;;;;14.38;9.20;;;;;;;;;;5075935;28;20057;-47
2022/05/07 01:48:26;;;;;;;7.60;5.13;;;;;;;;;;5075996;28;20048;-46
2022/05/07 01:50:53;;;;;;;8.27;5.32;;;;;;;;;;5075889;28;20033;-46
2022/05/07 01:53:19;;;;;;;11.63;5.90;;;;;;;;;;5075706;28;20024;-46
2022/05/07 01:55:45;;;;;;;9.00;5.75;;;;;;;;;;5075482;28;20024;-47
2022/05/07 01:58:11;;;;;;;22.38;12.82;;;;;;;;;;5075485;28;20035;-46
2022/05/07 02:00:40;;;;;;;9.70;5.15;;;;;;;;;;5075569;28;20479;-46
2022/05/07 02:03:12;;;;;;;9.02;6.28;;;;;;;;;;5075525;28;20092;-46
2022/05/07 02:05:38;;;;;;;8.75;6.05;;;;;;;;;;5075507;28;20107;-46
2022/05/07 02:08:04;;;;;;;8.57;5.03;;;;;;;;;;5075349;28;20459;-46
2022/05/07 02:10:30;;;;;;;8.80;6.20;;;;;;;;;;5075230;28;20057;-46
2022/05/07 02:12:57;;;;;;;9.25;6.78;;;;;;;;;;5075037;28;20028;-46
2022/05/07 02:15:23;;;;;;;8.55;5.57;;;;;;;;;;5075315;28;20020;-46
2022/05/07 02:17:52;;;;;;;7.53;5.40;;;;;;;;;;5075319;28;20078;-46
2022/05/07 02:20:18;;;;;;;12.15;7.30;;;;;;;;;;5075171;28;20035;-46
2022/05/07 02:22:44;;;;;;;9.45;5.53;;;;;;;;;;5075154;28;20035;-46
2022/05/07 02:25:13;;;;;;;7.75;5.47;;;;;;;;;;5075006;28;20419;-46
2022/05/07 02:27:41;;;;;;;8.38;5.38;;;;;;;;;;5074834;28;20053;-46
2022/05/07 02:30:07;;;;;;;11.00;6.78;;;;;;;;;;5075078;28;20082;-46
2022/05/07 02:32:36;;;;;;;9.00;5.78;;;;;;;;;;5075072;28;20036;-47
2022/05/07 02:35:04;;;;;;;8.38;5.25;;;;;;;;;;5074851;28;20028;-46
2022/05/07 02:37:30;;;;;;;12.95;6.43;;;;;;;;;;5074848;28;20377;-46
2022/05/07 02:39:56;;;;;;;9.23;5.65;;;;;;;;;;5074938;28;20028;-46
2022/05/07 02:42:36;;;;;;;9.20;5.03;;;;;;;;;;5074515;28;20074;-46
2022/05/07 02:45:03;;;;;;;8.30;5.90;;;;;;;;;;5074652;28;20028;-46
2022/05/07 02:47:30;;;;;;;9.52;5.43;;;;;;;;;;5074541;28;20027;-46
2022/05/07 02:49:58;;;;;;;11.18;6.03;;;;;;;;;;5074711;28;20036;-46
2022/05/07 02:52:32;;;;;;;10.57;6.43;;;;;;;;;;5074530;28;20025;-47
2022/05/07 02:54:59;;;;;;;13.43;6.00;;;;;;;;;;5073725;28;20089;-50
2022/05/07 02:57:25;;;;;;;9.95;6.80;;;;;;;;;;5074283;28;20020;-51
2022/05/07 02:59:51;;;;;;;9.68;6.15;;;;;;;;;;5074333;28;20107;-47
2022/05/07 03:02:17;;;;;;;9.90;6.00;;;;;;;;;;5074558;28;20415;-50
2022/05/07 03:04:47;;;;;;;6.70;5.30;;;;;;;;;;5074341;28;20066;-46
2022/05/07 03:07:13;;;;;;;10.93;5.40;;;;;;;;;;5074314;28;20463;-46
2022/05/07 03:09:39;;;;;;;10.27;5.78;;;;;;;;;;5073973;28;20521;-46
2022/05/07 03:12:06;;;;;;;9.32;5.82;;;;;;;;;;5073766;28;20082;-46
2022/05/07 03:14:32;;;;;;;8.02;6.53;;;;;;;;;;5074088;28;20028;-46
2022/05/07 03:16:58;;;;;;;14.05;6.15;;;;;;;;;;5055770;28;20438;-46
2022/05/07 03:19:24;;;;;;;7.03;5.47;;;;;;;;;;5073974;28;20482;-46
2022/05/07 03:21:55;;;;;;;8.68;5.15;;;;;;;;;;5074008;28;20391;-46
2022/05/07 03:24:22;;;;;;;10.30;6.28;;;;;;;;;;5073792;28;20499;-46
2022/05/07 03:26:50;;;;;;;9.15;6.10;;;;;;;;;;5073830;28;20074;-46
2022/05/07 03:29:18;;;;;;;8.40;6.30;;;;;;;;;;5073866;28;20563;-46
2022/05/07 03:31:48;;;;;;;9.23;6.40;;;;;;;;;;5073903;28;20050;-46
2022/05/07 03:34:17;;;;;;;8.65;5.82;;;;;;;;;;5073967;28;20476;-47
2022/05/07 03:36:43;;;;;;;9.02;6.32;;;;;;;;;;5074314;28;20095;-46
2022/05/07 03:39:09;;;;;;;8.75;5.60;;;;;;;;;;5055689;28;20098;-46
2022/05/07 03:41:35;;;;;;;10.30;5.95;;;;;;;;;;5073664;28;20025;-47
2022/05/07 03:44:04;;;;;;;8.88;6.97;;;;;;;;;;5073771;28;20376;-47
2022/05/07 03:46:32;;;;;;;7.72;6.32;;;;;;;;;;5073550;28;20157;-46
2022/05/07 03:48:58;;;;;;;9.82;6.18;;;;;;;;;;5073642;28;20054;-47
2022/05/07 03:51:24;;;;;;;13.43;7.15;;;;;;;;;;5073528;28;20056;-47
2022/05/07 03:54:01;;;;;;;9.70;6.45;;;;;;;;;;5073359;28;20480;-50
2022/05/07 03:56:27;;;;;;;9.35;6.45;;;;;;;;;;5073448;28;20024;-47
2022/05/07 03:58:53;;;;;;;8.77;6.45;;;;;;;;;;5073257;28;20024;-46
2022/05/07 04:01:20;;;;;;;9.02;6.32;;;;;;;;;;5073531;28;20029;-47
2022/05/07 04:03:51;;;;;;;10.65;6.80;;;;;;;;;;5073354;28;20114;-47
2022/05/07 04:06:17;;;;;;;11.82;6.45;;;;;;;;;;5073208;28;20049;-47
2022/05/07 04:08:45;;;;;;;8.35;5.97;;;;;;;;;;5073009;28;20551;-47
2022/05/07 04:11:11;;;;;;;9.35;6.20;;;;;;;;;;5073304;28;20074;-46
2022/05/07 04:13:37;;;;;;;10.30;5.97;;;;;;;;;;5073204;28;20043;-46
2022/05/07 04:16:08;;;;;;;10.30;6.50;;;;;;;;;;5073436;28;20027;-46
2022/05/07 04:18:34;;;;;;;11.65;6.82;;;;;;;;;;5073311;28;20404;-47
2022/05/07 04:21:04;;;;;;;10.15;6.00;;;;;;;;;;5073379;28;20096;-46
2022/05/07 04:23:32;;;;;;;12.68;6.95;;;;;;;;;;5073184;28;20567;-46
2022/05/07 04:25:58;;;;;;;10.73;6.32;;;;;;;;;;5073316;28;20020;-50
2022/05/07 04:28:24;;;;;;;13.07;6.05;;;;;;;;;;5073136;28;20052;-47
2022/05/07 04:30:50;;;;;;;9.32;6.45;;;;;;;;;;5073241;28;20472;-50
2022/05/07 04:33:17;;;;;;;8.43;6.68;;;;;;;;;;5073030;28;20457;-46
2022/05/07 04:35:43;;;;;;;8.65;6.25;;;;;;;;;;5073064;28;20379;-47
2022/05/07 04:38:09;;;;;;;9.38;7.32;;;;;;;;;;5073039;28;20099;-46
2022/05/07 04:40:35;;;;;;;10.27;6.70;;;;;;;;;;5072899;28;20087;-46
2022/05/07 04:43:01;;;;;;;10.05;5.93;;;;;;;;;;5073034;28;20047;-46
2022/05/07 04:45:28;;;;;;;10.82;6.70;;;;;;;;;;5073124;28;20028;-46
2022/05/07 04:47:54;;;;;;;9.52;6.50;;;;;;;;;;5072908;28;20024;-47
2022/05/07 04:50:25;;;;;;;8.23;6.82;;;;;;;;;;5072882;28;20074;-46
2022/05/07 04:52:51;;;;;;;10.82;6.88;;;;;;;;;;5054774;28;20508;-46
2022/05/07 04:55:20;;;;;;;10.73;7.50;;;;;;;;;;5072894;28;20020;-46
2022/05/07 04:57:46;;;;;;;9.23;7.50;;;;;;;;;;5072788;28;20472;-48
2022/05/07 05:00:12;;;;;;;13.57;8.27;;;;;;;;;;5072963;28;20108;-47
2022/05/07 05:02:38;;;;;;;8.82;7.22;;;;;;;;;;5073010;28;20025;-47
2022/05/07 05:05:16;;;;;;;11.63;7.50;;;;;;;;;;5072803;28;20024;-47
2022/05/07 05:07:44;;;;;;;11.02;7.38;;;;;;;;;;5072711;28;20025;-46
2022/05/07 05:10:10;;;;;;;11.73;7.60;;;;;;;;;;5072554;28;20132;-48
2022/05/07 05:12:36;;;;;;;11.27;7.57;;;;;;;;;;5072902;28;20024;-47
2022/05/07 05:15:03;;;;;;;8.82;6.60;;;;;;;;;;5072721;28;20119;-46
2022/05/07 05:17:32;;;;;;;11.35;7.70;;;;;;;;;;5074190;28;20100;-46
2022/05/07 05:19:59;;;;;;;11.15;6.50;;;;;;;;;;5076314;28;20024;-48
2022/05/07 05:22:27;;;;;;;9.05;6.68;;;;;;;;;;5076303;28;20020;-47
2022/05/07 05:24:54;;;;;;;7.03;5.65;;;;;;;;;;5058255;28;20518;-46
2022/05/07 05:27:20;;;;;;;11.35;6.38;;;;;;;;;;5076135;28;20032;-46
2022/05/07 05:29:46;;;;;;;9.55;6.88;;;;;;;;;;5076051;28;20074;-47
2022/05/07 05:32:17;;;;;;;9.63;6.40;;;;;;;;;;5076222;28;20024;-46
2022/05/07 05:34:45;;;;;;;9.07;6.57;;;;;;;;;;5075931;28;20043;-47
2022/05/07 05:37:11;;;;;;;8.05;6.18;;;;;;;;;;5076183;28;20024;-47
2022/05/07 05:39:37;;;;;;;10.48;6.50;;;;;;;;;;5075763;28;20103;-47
2022/05/07 05:42:03;;;;;;;11.20;6.88;;;;;;;;;;5075829;28;20017;-46
2022/05/07 05:44:32;;;;;;;12.77;8.45;;;;;;;;;;5075940;28;20024;-47
2022/05/07 05:46:58;;;;;;;13.00;7.75;;;;;;;;;;5075785;28;20040;-46
2022/05/07 05:49:24;;;;;;;11.32;6.95;;;;;;;;;;5075544;28;20108;-47
2022/05/07 05:51:50;;;;;;;15.57;10.02;;;;;;;;;;5075508;28;20028;-46
2022/05/07 05:54:16;;;;;;;10.30;6.80;;;;;;;;;;5075607;28;20095;-47
2022/05/07 05:56:42;;;;;;;7.60;6.30;;;;;;;;;;5075452;28;20025;-47
2022/05/07 05:59:11;;;;;;;9.02;6.95;;;;;;;;;;5057424;28;20037;-47
2022/05/07 06:01:39;;;;;;;7.63;5.63;;;;;;;;;;5075724;28;20039;-46
2022/05/07 06:04:05;;;;;;;6.85;5.47;;;;;;;;;;5075284;28;20476;-47
2022/05/07 06:06:34;;;;;;;9.38;6.50;;;;;;;;;;5075302;28;20032;-51
2022/05/07 06:09:00;;;;;;;10.35;6.35;;;;;;;;;;5075050;28;20021;-47
2022/05/07 06:11:28;;;;;;;8.95;6.53;;;;;;;;;;5075350;28;20035;-47
2022/05/07 06:13:55;;;;;;;10.25;7.00;;;;;;;;;;5075054;28;20029;-47
2022/05/07 06:16:21;;;;;;;9.55;6.95;;;;;;;;;;5075251;28;20028;-47
2022/05/07 06:18:47;;;;;;;8.80;6.55;;;;;;;;;;5075097;28;20016;-47
2022/05/07 06:21:13;;;;;;;9.93;6.03;;;;;;;;;;5075241;28;20508;-48
2022/05/07 06:23:39;;;;;;;12.70;7.60;;;;;;;;;;5075019;28;20017;-47
2022/05/07 06:28:52;;;;;;;9.10;7.18;;;;;;;;;;5074943;28;20035;-47
2022/05/07 06:31:21;;;;;;;11.35;6.63;;;;;;;;;;5075017;28;20477;-47
2022/05/07 06:33:47;;;;;;;11.68;6.53;;;;;;;;;;5075003;28;20052;-47
2022/05/07 06:36:15;;;;;;;9.93;7.03;;;;;;;;;;5074813;28;20440;-47
2022/05/07 06:38:42;;;;;;;13.38;6.75;;;;;;;;;;5074798;28;20025;-47
2022/05/07 06:41:08;;;;;;;11.90;7.18;;;;;;;;;;5074757;28;20017;-47
2022/05/07 06:43:34;;;;;;;10.90;6.97;;;;;;;;;;5074603;28;20369;-46
2022/05/07 06:46:01;;;;;;;11.68;7.43;;;;;;;;;;5074636;28;20028;-46
2022/05/07 06:48:27;;;;;;;9.02;6.85;;;;;;;;;;5074653;28;20056;-46
2022/05/07 06:50:54;;;;;;;9.30;7.15;;;;;;;;;;5074604;28;20034;-47
2022/05/07 06:53:20;;;;;;;12.77;8.05;;;;;;;;;;5074326;28;20034;-46
2022/05/07 06:55:56;;;;;;;8.98;7.32;;;;;;;;;;5074230;28;20035;-47
2022/05/07 06:58:34;;;;;;;10.70;7.00;;;;;;;;;;5074462;28;20029;-47
2022/05/07 07:01:01;;;;;;;10.90;7.05;;;;;;;;;;5074152;28;20393;-49
2022/05/07 07:03:27;;;;;;;9.38;7.07;;;;;;;;;;5074148;28;20522;-47
2022/05/07 07:05:54;;;;;;;9.38;7.18;;;;;;;;;;5074278;28;20055;-47
2022/05/07 07:08:20;;;;;;;10.15;7.60;;;;;;;;;;5074114;28;20465;-46
2022/05/07 07:10:47;;;;;;;8.60;7.13;;;;;;;;;;5073731;28;20575;-46
2022/05/07 07:13:15;;;;;;;7.93;6.37;;;;;;;;;;5073958;28;20078;-47
2022/05/07 07:15:42;;;;;;;9.57;6.85;;;;;;;;;;5073798;28;20025;-46
2022/05/07 07:18:09;;;;;;;13.93;7.57;;;;;;;;;;5073895;28;20365;-48
2022/05/07 07:20:39;;;;;;;13.73;7.70;;;;;;;;;;5073987;28;20031;-47
2022/05/07 07:23:06;;;;;;;9.45;7.03;;;;;;;;;;5074036;28;20078;-46
2022/05/07 07:25:34;;;;;;;12.70;7.03;;;;;;;;;;5073825;28;20067;-46
2022/05/07 07:28:01;;;;;;;10.43;7.45;;;;;;;;;;5073929;28;20052;-47
2022/05/07 07:30:27;;;;;;;12.30;7.25;;;;;;;;;;5073742;28;20103;-46
2022/05/07 07:32:53;;;;;;;10.65;7.28;;;;;;;;;;5054850;28;20029;-46
2022/05/07 07:35:19;;;;;;;11.93;6.60;;;;;;;;;;5053234;28;20029;-47
2022/05/07 07:37:45;;;;;;;11.48;6.65;;;;;;;;;;5053167;28;20017;-47
2022/05/07 07:40:15;;;;;;;9.50;6.38;;;;;;;;;;5052415;28;20029;-46
2022/05/07 07:42:41;;;;;;;12.25;6.43;;;;;;;;;;5050610;28;20017;-52
2022/05/07 07:47:59;;;;;;;23.27;12.45;;;;;;;;;;5053882;28;20036;-46
2022/05/07 07:50:26;;;;;;;17.53;11.50;;;;;;;;;;5053437;28;20048;-46
2022/05/07 07:52:53;;;;;;;10.98;5.13;;;;;;;;;;5053399;28;20254;-47
2022/05/07 07:55:20;;;;;;;8.98;4.97;;;;;;;;;;5053247;28;20504;-47
2022/05/07 07:57:46;;;;;;;10.93;6.35;;;;;;;;;;5053182;28;20090;-47
2022/05/07 08:00:13;;;;;;;11.57;7.15;;;;;;;;;;5053180;28;20050;-48
2022/05/07 08:02:54;;;;;;;13.95;7.38;;;;;;;;;;5053198;28;20484;-47
2022/05/07 08:05:21;;;;;;;10.25;6.28;;;;;;;;;;5053324;28;20021;-47
2022/05/07 08:13:16;;;;;;;7.78;5.13;;;;;;;;;;5053193;28;20040;-46
2022/05/07 08:15:48;;;;;;;9.45;4.82;;;;;;;;;;5053100;28;20029;-49
2022/05/07 08:18:15;;;;;;;8.85;5.28;;;;;;;;;;5052814;28;20385;-50
2022/05/07 08:20:44;;;;;;;8.80;5.40;;;;;;;;;;5053046;28;20032;-47
2022/05/07 08:23:13;;;;;;;9.88;5.28;;;;;;;;;;5052861;28;20094;-47
2022/05/07 08:25:39;;;;;;;8.57;6.30;;;;;;;;;;5052590;28;20028;-47
2022/05/07 08:28:05;;;;;;;10.02;5.18;;;;;;;;;;5053186;28;20437;-46
2022/05/07 08:30:36;;;;;;;14.63;6.88;;;;;;;;;;5052791;28;20065;-47
2022/05/07 08:33:05;;;;;;;11.25;6.20;;;;;;;;;;5052496;28;20474;-46
2022/05/07 08:35:31;;;;;;;10.27;6.28;;;;;;;;;;5052642;28;20041;-46
2022/05/07 08:37:57;;;;;;;12.73;9.25;;;;;;;;;;5052880;28;20055;-45
2022/05/07 08:40:24;;;;;;;22.67;13.68;;;;;;;;;;5052593;28;20113;-46
2022/05/07 08:42:50;;;;;;;11.52;6.68;;;;;;;;;;5052265;28;20037;-47
2022/05/07 08:45:17;;;;;;;12.98;6.60;;;;;;;;;;5051886;28;20025;-49
2022/05/07 08:47:43;;;;;;;12.82;6.40;;;;;;;;;;5051862;28;20029;-46
2022/05/07 08:50:11;;;;;;;9.20;5.72;;;;;;;;;;5049812;28;20480;-48
2022/05/07 08:52:39;;;;;;;11.43;7.60;;;;;;;;;;5053976;28;20058;-48
2022/05/07 08:55:06;;;;;;;15.85;8.77;;;;;;;;;;5056061;28;20036;-51
2022/05/07 08:57:32;;;;;;;15.80;9.63;;;;;;;;;;5056097;28;20150;-48
2022/05/07 09:00:01;;;;;;;23.98;13.98;;;;;;;;;;5056105;28;20025;-47
2022/05/07 09:02:27;;;;;;;23.80;12.77;;;;;;;;;;5056013;28;20396;-50
2022/05/07 09:05:02;;;;;;;14.52;9.68;;;;;;;;;;5055889;28;20019;-51
2022/05/07 09:07:28;;;;;;;16.02;7.00;;;;;;;;;;5055999;28;20028;-45
2022/05/07 09:09:54;;;;;;;7.55;4.47;;;;;;;;;;5055566;28;20084;-43
2022/05/07 09:12:24;;;;;;;22.08;12.68;;;;;;;;;;5055429;28;20028;-44
2022/05/07 09:14:50;;;;;;;15.55;8.18;;;;;;;;;;5055233;28;20069;-44
2022/05/07 09:17:21;;;;;;;10.80;5.78;;;;;;;;;;5056059;28;20424;-44
2022/05/07 09:19:47;;;;;;;8.77;5.32;;;;;;;;;;5056050;28;20040;-44
2022/05/07 09:22:15;;;;;;;11.43;6.45;;;;;;;;;;5056018;28;20503;-43
2022/05/07 09:24:52;;;;;;;21.05;11.02;;;;;;;;;;5056181;28;20059;-43
2022/05/07 09:27:18;;;;;;;20.23;8.20;;;;;;;;;;5055979;28;20017;-44
2022/05/07 09:29:44;;;;;;;11.77;6.00;;;;;;;;;;5056006;28;20021;-43
2022/05/07 09:32:15;;;;;;;14.27;8.02;;;;;;;;;;5055895;28;20029;-42
2022/05/07 09:37:36;;;;;;;6.50;4.40;;;;;;;;;;5056204;28;20094;-42
2022/05/07 09:40:12;;;;;;;11.82;4.57;;;;;;;;;;5055840;28;20037;-42
2022/05/07 09:42:39;;;;;;;9.20;6.32;;;;;;;;;;5055460;28;20031;-42
2022/05/07 09:45:08;;;;;;;12.38;5.57;;;;;;;;;;5055794;28;20028;-46
2022/05/07 09:47:35;;;;;;;10.00;4.75;;;;;;;;;;5055830;28;20028;-46
2022/05/07 09:58:21;;;;;;;12.75;6.88;;;;;;;;;;5055775;28;20063;-46
2022/05/07 10:01:08;;;;;;;8.52;5.53;;;;;;;;;;5055385;28;20036;-47
2022/05/07 10:03:41;;;;;;;20.85;10.00;;;;;;;;;;5054932;28;20413;-46
2022/05/07 10:06:26;;;;;;;9.55;4.80;;;;;;;;;;5055297;28;20025;-47
2022/05/07 10:09:00;;;;;;;10.05;5.30;;;;;;;;;;5053074;28;20075;-46
2022/05/07 10:11:27;;;;;;;7.18;3.33;;;;;;;;;;5049138;28;20032;-47
2022/05/07 10:13:58;;;;;;;5.30;3.22;;;;;;;;;;5050117;28;20029;-47
2022/05/07 10:16:28;;;;;;;111.95;8.38;;;;;;;;;;5051025;28;20017;-46
2022/05/07 10:18:55;;;;;;;9.70;4.97;;;;;;;;;;5051550;28;20017;-47
2022/05/07 10:21:23;;;;;;;4.68;3.08;;;;;;;;;;5051617;28;20024;-46
2022/05/07 10:23:50;;;;;;;12.18;6.95;;;;;;;;;;5051354;28;20026;-47
2022/05/07 10:26:17;;;;;;;12.93;7.90;;;;;;;;;;5050997;28;20034;-46
2022/05/07 10:28:43;;;;;;;16.55;10.20;;;;;;;;;;5050964;28;20032;-46
2022/05/07 10:31:20;;;;;;;23.08;14.55;;;;;;;;;;5050699;28;20016;-47
2022/05/07 10:33:49;;;;;;;17.92;9.02;;;;;;;;;;5049823;28;20486;-47
2022/05/07 10:36:17;;;;;;;8.77;3.50;;;;;;;;;;5049339;28;20032;-46
2022/05/07 10:38:45;;;;;;;8.13;3.53;;;;;;;;;;5050893;28;20488;-46
2022/05/07 10:41:17;;;;;;;5.88;3.30;;;;;;;;;;5051234;28;20028;-46
2022/05/07 10:43:47;;;;;;;6.95;4.03;;;;;;;;;;5047833;28;20033;-45
2022/05/07 10:46:16;;;;;;;7.40;3.88;;;;;;;;;;5050900;28;20721;-46
2022/05/07 10:48:50;;;;;;;14.73;5.70;;;;;;;;;;5050562;28;20040;-46
2022/05/07 10:51:22;;;;;;;17.17;8.07;;;;;;;;;;5048740;28;20147;-46
2022/05/07 10:53:51;;;;;;;;;;;;;;;;;;5051448;28;20017;-46
2022/05/07 10:56:18;;;;;;;5.93;4.28;;;;;;;;;;5049956;28;19916;-46
2022/05/07 10:58:48;;;;;;;9.23;5.20;;;;;;;;;;5050709;28;20028;-46
2022/05/07 11:01:15;;;;;;;9.67;4.53;;;;;;;;;;5049041;28;20596;-46
2022/05/07 11:03:41;;;;;;;10.82;5.63;;;;;;;;;;5050381;28;20392;-46
2022/05/07 11:06:07;;;;;;;6.45;3.42;;;;;;;;;;5050305;28;20047;-46
2022/05/07 11:08:35;;;;;;;16.73;8.90;;;;;;;;;;5050406;28;20123;-47
2022/05/07 11:11:11;;;;;;;6.00;3.70;;;;;;;;;;5049327;28;20159;-46
2022/05/07 11:13:50;;;;;;;8.27;4.43;;;;;;;;;;5047969;28;20131;-46
2022/05/07 11:16:19;;;;;;;9.23;5.40;;;;;;;;;;5031685;28;20032;-46
2022/05/07 11:18:51;;;;;;;10.43;6.38;;;;;;;;;;5050214;28;20488;-46
2022/05/07 11:21:18;;;;;;;9.48;4.00;;;;;;;;;;5049294;28;20523;-46
2022/05/07 11:23:47;;;;;;;9.45;4.40;;;;;;;;;;5047064;28;20025;-46
2022/05/07 11:26:15;;;;;;;6.88;2.83;;;;;;;;;;5049722;28;20059;-45
2022/05/07 11:28:43;;;;;;;13.63;5.03;;;;;;;;;;5049689;28;20310;-45
2022/05/07 11:31:10;;;;;;;5.95;3.50;;;;;;;;;;5007870;28;21650;-45
2022/05/07 11:33:36;;;;;;;6.85;4.10;;;;;;;;;;5049106;28;20767;-45
2022/05/07 11:36:06;;;;;;;12.25;6.22;;;;;;;;;;5049206;28;20396;-46
2022/05/07 11:38:33;;;;;;;13.48;7.00;;;;;;;;;;5047594;28;20186;-46
2022/05/07 11:41:09;;;;;;;8.90;3.60;;;;;;;;;;5049372;28;20143;-46
2022/05/07 11:46:20;;;;;;;8.35;3.38;;;;;;;;;;5049094;28;20448;-46
2022/05/07 11:48:46;;;;;;;10.45;6.13;;;;;;;;;;5048387;28;20403;-46
2022/05/07 11:51:22;;;;;;;11.13;5.43;;;;;;;;;;5049192;28;20064;-46
2022/05/07 11:53:51;;;;;;;6.00;3.10;;;;;;;;;;5049138;28;20516;-46
2022/05/07 11:56:18;;;;;;;5.90;2.90;;;;;;;;;;5049384;28;20032;-46
2022/05/07 11:58:46;;;;;;;7.38;3.53;;;;;;;;;;5049467;28;20021;-46
2022/05/07 12:01:22;;;;;;;20.73;11.50;;;;;;;;;;5049262;28;20512;-45
2022/05/07 12:03:49;;;;;;;4.78;2.78;;;;;;;;;;5047680;28;20082;-46
2022/05/07 12:06:28;;;;;;;8.57;3.38;;;;;;;;;;5049218;28;20358;-47
2022/05/07 12:08:57;;;;;;;12.35;4.35;;;;;;;;;;5047058;28;20024;-47
2022/05/07 12:11:23;;;;;;;9.90;4.07;;;;;;;;;;5049235;28;20498;-46
2022/05/07 12:13:59;;;;;;;9.85;3.03;;;;;;;;;;5048496;28;20025;-48
2022/05/07 12:19:10;;;;;;;5.30;3.17;;;;;;;;;;5057921;28;20024;-45
2022/05/07 12:29:54;;;;;;;5.35;2.80;;;;;;;;;;5057268;28;20075;-46
2022/05/07 12:32:23;;;;;;;9.73;4.70;;;;;;;;;;5057055;28;20013;-46
2022/05/07 12:34:49;;;;;;;4.50;2.70;;;;;;;;;;5057121;28;20519;-47
2022/05/07 12:37:15;;;;;;;7.65;3.88;;;;;;;;;;5057061;28;20032;-46
2022/05/07 12:39:42;;;;;;;20.58;3.05;;;;;;;;;;5056985;28;20055;-46
2022/05/07 12:42:09;;;;;;;5.88;3.42;;;;;;;;;;5057126;28;20415;-45
2022/05/07 12:44:35;;;;;;;9.55;4.03;;;;;;;;;;5056305;28;20017;-46
2022/05/07 12:47:02;;;;;;;4.10;2.97;;;;;;;;;;5056922;28;20051;-46
2022/05/07 12:49:28;;;;;;;11.07;2.50;;;;;;;;;;5056289;28;20029;-47
2022/05/07 12:51:55;;;;;;;3.70;2.50;;;;;;;;;;5056598;28;20096;-44
2022/05/07 12:54:21;;;;;;;8.45;3.40;;;;;;;;;;5056899;28;20013;-43
2022/05/07 12:56:48;;;;;;;7.03;4.25;;;;;;;;;;5056558;28;20469;-45
2022/05/07 12:59:14;;;;;;;4.97;2.53;;;;;;;;;;5056626;28;20104;-46
2022/05/07 13:01:40;;;;;;;20.05;3.75;;;;;;;;;;5056479;28;20465;-46
2022/05/07 13:04:09;;;;;;;4.93;2.60;;;;;;;;;;5056622;28;20032;-44
2022/05/07 13:06:35;;;;;;;6.13;3.17;;;;;;;;;;5056389;28;20092;-45
2022/05/07 13:09:01;;;;;;;5.43;3.15;;;;;;;;;;5056305;28;20036;-45
2022/05/07 13:11:27;;;;;;;8.77;3.70;;;;;;;;;;5056327;28;20028;-45
2022/05/07 13:13:54;;;;;;;6.95;3.38;;;;;;;;;;5056250;28;20058;-45
2022/05/07 13:16:20;;;;;;;8.38;3.70;;;;;;;;;;5056029;28;20366;-45
2022/05/07 13:18:47;;;;;;;8.05;2.60;;;;;;;;;;5056237;28;20028;-45
2022/05/07 13:21:15;;;;;;;5.82;3.35;;;;;;;;;;5055994;28;20063;-45
2022/05/07 13:23:41;;;;;;;7.40;3.13;;;;;;;;;;5056312;28;20150;-45
2022/05/07 13:26:07;;;;;;;11.48;2.28;;;;;;;;;;5056334;28;20382;-45
2022/05/07 13:28:34;;;;;;;8.23;3.28;;;;;;;;;;5056057;28;20488;-46
2022/05/07 13:31:01;;;;;;;4.30;2.53;;;;;;;;;;5056367;28;20043;-45
2022/05/07 13:33:30;;;;;;;5.35;2.35;;;;;;;;;;5056401;28;20025;-45
2022/05/07 13:35:57;;;;;;;5.88;2.88;;;;;;;;;;5055773;28;20075;-45
2022/05/07 13:38:24;;;;;;;4.55;2.40;;;;;;;;;;5055301;28;20499;-47
2022/05/07 13:40:51;;;;;;;6.22;2.53;;;;;;;;;;5056069;28;20543;-45
2022/05/07 13:43:17;;;;;;;3.88;2.05;;;;;;;;;;5055936;28;20120;-46
2022/05/07 13:45:43;;;;;;;6.80;2.55;;;;;;;;;;5055603;28;20033;-46
2022/05/07 13:48:09;;;;;;;5.40;2.42;;;;;;;;;;5055387;28;20461;-47
2022/05/07 13:50:36;;;;;;;5.05;2.95;;;;;;;;;;5050205;28;20479;-45
2022/05/07 13:53:03;;;;;;;5.35;3.38;;;;;;;;;;5049649;28;20033;-46
2022/05/07 13:55:29;;;;;;;10.35;3.10;;;;;;;;;;5051053;28;20033;-45
2022/05/07 13:57:55;;;;;;;8.02;3.75;;;;;;;;;;5051885;28;20164;-45
2022/05/07 14:00:24;;;;;;;8.40;3.45;;;;;;;;;;5051815;28;20546;-45
2022/05/07 14:02:50;;;;;;;5.95;2.83;;;;;;;;;;5051323;28;20061;-45
2022/05/07 14:05:16;;;;;;;6.03;2.67;;;;;;;;;;5050463;28;20039;-45
2022/05/07 14:07:43;;;;;;;7.85;2.58;;;;;;;;;;5049066;28;20081;-46
2022/05/07 14:10:11;;;;;;;3.50;2.65;;;;;;;;;;5050801;28;20056;-46
2022/05/07 14:12:38;;;;;;;7.97;2.80;;;;;;;;;;5050949;28;20492;-45
2022/05/07 14:15:04;;;;;;;5.65;2.83;;;;;;;;;;5050808;28;20072;-45
2022/05/07 14:17:31;;;;;;;3.65;2.20;;;;;;;;;;5051633;28;20097;-45
2022/05/07 14:19:59;;;;;;;5.05;2.63;;;;;;;;;;5049863;28;20033;-45
2022/05/07 14:22:26;;;;;;;4.22;2.53;;;;;;;;;;5050648;28;20090;-44
2022/05/07 14:24:54;;;;;;;4.63;2.30;;;;;;;;;;5050829;28;20440;-44
2022/05/07 14:27:20;;;;;;;7.47;2.58;;;;;;;;;;5050960;28;20063;-44
2022/05/07 14:29:46;;;;;;;4.65;2.25;;;;;;;;;;5050613;28;20024;-44
2022/05/07 14:32:13;;;;;;;5.90;2.70;;;;;;;;;;5047572;28;20374;-44
2022/05/07 14:34:39;;;;;;;5.55;2.72;;;;;;;;;;5050337;28;20020;-44
2022/05/07 14:37:05;;;;;;;4.75;2.58;;;;;;;;;;5050472;28;20129;-45
2022/05/07 14:39:31;;;;;;;5.85;3.35;;;;;;;;;;5050652;28;20032;-44
2022/05/07 14:41:58;;;;;;;6.38;2.30;;;;;;;;;;5050068;28;20034;-44
2022/05/07 14:44:24;;;;;;;6.25;3.10;;;;;;;;;;5049528;28;20116;-44
2022/05/07 14:46:52;;;;;;;9.13;2.50;;;;;;;;;;5050591;28;20031;-45
2022/05/07 14:49:18;;;;;;;5.57;2.63;;;;;;;;;;5049435;28;20040;-45
2022/05/07 14:51:47;;;;;;;5.78;2.28;;;;;;;;;;5048327;28;20020;-44
2022/05/07 14:54:13;;;;;;;6.30;2.85;;;;;;;;;;5049276;28;20013;-45
2022/05/07 14:56:39;;;;;;;5.03;2.80;;;;;;;;;;5050302;28;20032;-45
2022/05/07 14:59:05;;;;;;;5.97;2.20;;;;;;;;;;5050216;28;20017;-45
2022/05/07 15:01:33;;;;;;;6.00;3.05;;;;;;;;;;5050048;28;20032;-45
2022/05/07 15:04:00;;;;;;;3.95;2.15;;;;;;;;;;5048567;28;20020;-45
2022/05/07 15:06:26;;;;;;;4.00;2.22;;;;;;;;;;5050676;28;20537;-43
2022/05/07 15:11:41;;;;;;;6.18;2.50;;;;;;;;;;5074357;28;20040;-43
2022/05/07 15:14:07;;;;;;;7.05;3.33;;;;;;;;;;5057610;28;20507;-43
2022/05/07 15:16:33;;;;;;;6.32;2.10;;;;;;;;;;5053594;28;20111;-43
2022/05/07 15:19:02;;;;;;;8.77;2.80;;;;;;;;;;5053417;28;20495;-44
2022/05/07 15:21:28;;;;;;;5.38;2.20;;;;;;;;;;5053370;28;20023;-43
2022/05/07 15:23:56;;;;;;;4.10;2.40;;;;;;;;;;5053312;28;20017;-44